Time;durP1;ratioP1;P1;durP2;ratioP2;P2;SDS_P1;SDS_P2;PMS_P1;PMS_P2;Temp;Humidity;BMP_temperature;BMP_pressure;BME280_temperature;BME280_humidity;BME280_pressure;Samples;Min_cycle;Max_cycle;Signal;HPM_P1;HPM_P2
2022/05/23 00:01:23;;;;;;;5.43;4.93;;;23.60;62.40;;;;;;4977778;28;20134;-16
2022/05/23 00:03:49;;;;;;;5.43;4.93;;;23.60;62.40;;;;;;4978412;28;20066;-15
2022/05/23 00:06:17;;;;;;;5.40;5.00;;;23.60;62.50;;;;;;4961360;28;20066;-16
2022/05/23 00:08:43;;;;;;;5.25;4.75;;;23.60;62.40;;;;;;4976131;28;20043;-16
2022/05/23 00:11:09;;;;;;;5.45;4.93;;;23.60;62.70;;;;;;4978287;28;20470;-15
2022/05/23 00:13:35;;;;;;;4.80;4.40;;;23.50;62.70;;;;;;4976932;28;20058;-15
2022/05/23 00:16:02;;;;;;;4.63;4.22;;;23.50;62.70;;;;;;4978042;28;20688;-16
2022/05/23 00:18:27;;;;;;;5.30;4.90;;;23.60;62.70;;;;;;4977685;28;20046;-15
2022/05/23 00:20:53;;;;;;;5.30;4.80;;;23.60;62.70;;;;;;4978211;28;20078;-16
2022/05/23 00:23:18;;;;;;;4.55;4.15;;;23.60;62.70;;;;;;4977194;28;20058;-16
2022/05/23 00:25:44;;;;;;;4.57;4.22;;;23.50;62.80;;;;;;4977472;28;20057;-16
2022/05/23 00:28:10;;;;;;;4.70;4.30;;;23.50;62.80;;;;;;4977344;28;20082;-15
2022/05/23 00:30:35;;;;;;;4.55;4.25;;;23.50;62.80;;;;;;4977089;28;20105;-15
2022/05/23 00:35:53;;;;;;;4.70;4.30;;;23.50;62.70;;;;;;4976772;28;20150;-17
2022/05/23 00:38:18;;;;;;;4.85;4.47;;;23.50;62.80;;;;;;4957210;28;20062;-15
2022/05/23 00:44:11;;;;;;;4.30;4.00;;;23.50;62.80;;;;;;4974563;28;20117;-16
2022/05/23 00:47:01;;;;;;;4.15;3.85;;;23.50;62.70;;;;;;4957567;28;20054;-16
2022/05/23 00:49:36;;;;;;;3.83;3.53;;;23.50;62.70;;;;;;4957782;28;20039;-15
2022/05/23 00:52:05;;;;;;;4.65;4.25;;;23.50;62.60;;;;;;4958492;28;20515;-16
2022/05/23 00:54:42;;;;;;;4.15;3.83;;;23.50;62.70;;;;;;4957377;28;20051;-15
2022/05/23 00:57:09;;;;;;;3.67;3.40;;;23.50;62.60;;;;;;4958155;28;20051;-15
2022/05/23 00:59:34;;;;;;;3.60;3.30;;;23.50;62.60;;;;;;4957636;28;20043;-16
2022/05/23 01:02:01;;;;;;;3.95;3.65;;;23.50;62.70;;;;;;4957922;28;20097;-15
2022/05/23 01:04:28;;;;;;;3.90;3.60;;;23.50;62.80;;;;;;4948642;28;20042;-16
2022/05/23 01:06:54;;;;;;;3.80;3.50;;;23.40;62.60;;;;;;4960156;28;20045;-16
2022/05/23 01:09:22;;;;;;;3.67;3.38;;;23.50;62.70;;;;;;4977254;28;20043;-16
2022/05/23 01:11:48;;;;;;;3.55;3.30;;;23.50;62.70;;;;;;4976564;28;20043;-15
2022/05/23 01:14:14;;;;;;;3.50;3.30;;;23.50;62.60;;;;;;4976342;28;20110;-16
2022/05/23 01:16:40;;;;;;;3.67;3.42;;;23.50;62.60;;;;;;4976236;28;20070;-17
2022/05/23 01:19:05;;;;;;;3.70;3.40;;;23.40;62.60;;;;;;4977162;28;20058;-15
2022/05/23 01:21:48;;;;;;;3.45;3.20;;;23.40;62.60;;;;;;4976439;28;20093;-16
2022/05/23 01:24:16;;;;;;;3.63;3.33;;;23.50;62.50;;;;;;4957552;28;20093;-16
2022/05/23 01:26:42;;;;;;;4.15;3.47;;;23.50;62.50;;;;;;4971943;28;20063;-15
2022/05/23 01:29:10;;;;;;;3.60;3.40;;;23.40;62.40;;;;;;4966252;28;20054;-15
2022/05/23 01:31:36;;;;;;;3.78;3.45;;;23.40;62.40;;;;;;4974938;28;20101;-16
2022/05/23 01:34:01;;;;;;;3.42;3.20;;;23.40;62.40;;;;;;4976850;28;20042;-16
2022/05/23 01:36:27;;;;;;;2.92;2.70;;;23.40;62.30;;;;;;4976241;28;20228;-17
2022/05/23 01:38:53;;;;;;;3.30;3.10;;;23.40;62.40;;;;;;4976037;28;20420;-16
2022/05/23 01:41:18;;;;;;;3.35;3.05;;;23.40;62.40;;;;;;4976809;28;20035;-15
2022/05/23 01:43:44;;;;;;;2.60;2.40;;;23.40;62.30;;;;;;4975316;28;20592;-16
2022/05/23 01:46:09;;;;;;;3.20;2.90;;;23.40;62.40;;;;;;4976549;28;20043;-17
2022/05/23 01:48:35;;;;;;;2.97;2.78;;;23.40;63.00;;;;;;4976105;28;20043;-15
2022/05/23 01:51:01;;;;;;;3.08;2.83;;;23.40;62.20;;;;;;4990772;28;20522;-16
2022/05/23 01:53:26;;;;;;;2.95;2.75;;;23.40;62.30;;;;;;4976606;28;20050;-15
2022/05/23 01:55:52;;;;;;;2.90;2.70;;;23.40;62.30;;;;;;4975311;28;20504;-15
2022/05/23 02:01:12;;;;;;;3.30;3.00;;;23.40;62.30;;;;;;4976584;28;20046;-16
2022/05/23 02:01:15;;;;;;;2.90;2.70;;;23.40;62.20;;;;;;4975903;28;20046;-15
2022/05/23 02:03:42;;;;;;;2.65;2.45;;;23.40;62.20;;;;;;4975312;28;20038;-15
2022/05/23 02:06:08;;;;;;;2.53;2.33;;;23.40;62.20;;;;;;4976571;28;20047;-15
2022/05/23 02:08:33;;;;;;;2.80;2.60;;;23.40;62.20;;;;;;4977986;28;20051;-15
2022/05/23 02:10:59;;;;;;;3.00;2.80;;;23.40;62.30;;;;;;4980568;28;20043;-16
2022/05/23 02:13:24;;;;;;;2.47;2.38;;;23.40;62.20;;;;;;4979912;28;20205;-16
2022/05/23 02:15:50;;;;;;;3.25;2.95;;;23.40;62.20;;;;;;4979634;28;20047;-16
2022/05/23 02:18:15;;;;;;;2.80;2.53;;;23.40;62.20;;;;;;4979777;28;20058;-16
2022/05/23 02:20:41;;;;;;;2.30;2.10;;;23.40;62.20;;;;;;4978495;28;20042;-18
2022/05/23 02:23:07;;;;;;;2.72;2.53;;;23.40;62.20;;;;;;4979455;28;20054;-15
2022/05/23 02:25:32;;;;;;;2.35;2.25;;;23.40;62.20;;;;;;4979798;28;20527;-16
2022/05/23 02:27:58;;;;;;;2.67;2.50;;;23.40;62.20;;;;;;4979500;28;20043;-16
2022/05/23 02:30:23;;;;;;;2.90;2.70;;;23.40;62.20;;;;;;4972657;28;20047;-16
2022/05/23 02:32:49;;;;;;;2.67;2.47;;;23.40;62.20;;;;;;4960229;28;20127;-16
2022/05/23 02:35:16;;;;;;;2.22;2.13;;;23.40;62.10;;;;;;4970078;28;20043;-17
2022/05/23 02:37:42;;;;;;;2.42;2.33;;;23.40;62.10;;;;;;4958795;28;20035;-18
2022/05/23 02:40:08;;;;;;;2.20;2.10;;;23.30;62.00;;;;;;4977752;28;20046;-15
2022/05/23 02:42:34;;;;;;;2.40;2.20;;;23.40;62.00;;;;;;4977976;28;20529;-16
2022/05/23 02:44:59;;;;;;;2.65;2.45;;;23.40;62.10;;;;;;4972731;28;20112;-16
2022/05/23 02:47:25;;;;;;;2.50;2.30;;;23.30;62.10;;;;;;4978896;28;20134;-15
2022/05/23 02:49:51;;;;;;;2.08;1.98;;;23.30;62.10;;;;;;4979313;28;20051;-17
2022/05/23 02:52:16;;;;;;;2.78;2.47;;;23.30;62.10;;;;;;4979765;28;20035;-16
2022/05/23 02:54:42;;;;;;;2.80;2.60;;;23.40;62.00;;;;;;4978616;28;20043;-16
2022/05/23 02:57:07;;;;;;;2.53;2.15;;;23.30;62.00;;;;;;4979677;28;20425;-15
2022/05/23 02:59:33;;;;;;;3.42;2.35;;;23.40;62.00;;;;;;4978265;28;20047;-16
2022/05/23 03:04:43;;;;;;;2.50;2.30;;;23.30;62.00;;;;;;4968280;28;20471;-16
2022/05/23 03:07:09;;;;;;;2.25;2.15;;;23.30;61.90;;;;;;4979569;28;20047;-16
2022/05/23 03:09:35;;;;;;;2.10;2.00;;;23.30;62.70;;;;;;4978857;28;20043;-16
2022/05/23 03:12:01;;;;;;;2.05;1.95;;;23.30;61.90;;;;;;4977528;28;20050;-16
2022/05/23 03:14:27;;;;;;;1.98;1.88;;;23.30;61.90;;;;;;4979437;28;20141;-15
2022/05/23 03:16:53;;;;;;;2.10;2.00;;;23.30;62.00;;;;;;4977816;28;20054;-16
2022/05/23 03:19:19;;;;;;;2.20;2.10;;;23.30;61.90;;;;;;4979165;28;20051;-15
2022/05/23 03:27:13;;;;;;;1.98;1.85;;;23.30;62.00;;;;;;4978825;28;20302;-15
2022/05/23 03:29:40;;;;;;;1.70;1.60;;;23.30;61.80;;;;;;4977282;28;20054;-15
2022/05/23 03:32:06;;;;;;;2.00;1.67;;;23.30;61.90;;;;;;4963790;28;20107;-16
2022/05/23 03:34:32;;;;;;;1.90;1.80;;;23.30;61.80;;;;;;4969166;28;20125;-18
2022/05/23 03:36:57;;;;;;;1.73;1.58;;;23.30;61.80;;;;;;4978897;28;20063;-15
2022/05/23 03:39:23;;;;;;;1.73;1.63;;;23.30;61.80;;;;;;4978201;28;20500;-15
2022/05/23 03:41:52;;;;;;;1.45;1.35;;;23.30;61.90;;;;;;4978419;28;20042;-16
2022/05/23 03:44:18;;;;;;;1.73;1.63;;;23.30;61.80;;;;;;4978781;28;20416;-15
2022/05/23 03:46:43;;;;;;;1.60;1.50;;;23.30;61.80;;;;;;4969161;28;20039;-15
2022/05/23 03:49:09;;;;;;;2.03;1.92;;;23.30;61.80;;;;;;4959401;28;20046;-16
2022/05/23 03:51:35;;;;;;;3.10;1.75;;;23.30;61.80;;;;;;4958933;28;20130;-16
2022/05/23 03:54:01;;;;;;;1.83;1.73;;;23.30;61.70;;;;;;4959195;28;20420;-17
2022/05/23 03:56:26;;;;;;;1.95;1.75;;;23.20;61.80;;;;;;4959609;28;20039;-16
2022/05/23 03:58:52;;;;;;;1.70;1.60;;;23.20;61.80;;;;;;4958762;28;20101;-16
2022/05/23 04:01:21;;;;;;;1.73;1.63;;;23.20;61.80;;;;;;4971796;28;20049;-16
2022/05/23 04:03:47;;;;;;;1.67;1.58;;;23.20;61.70;;;;;;4977934;28;20046;-15
2022/05/23 04:06:12;;;;;;;1.65;1.55;;;23.20;61.80;;;;;;4978530;28;20134;-15
2022/05/23 04:08:38;;;;;;;1.95;1.85;;;23.20;61.80;;;;;;4977760;28;20044;-16
2022/05/23 04:11:04;;;;;;;1.73;1.63;;;23.20;61.80;;;;;;4977826;28;20050;-16
2022/05/23 04:13:30;;;;;;;1.73;1.63;;;23.20;61.70;;;;;;4978445;28;20046;-17
2022/05/23 04:15:56;;;;;;;1.70;1.60;;;23.20;61.60;;;;;;4977432;28;20050;-15
2022/05/23 04:18:21;;;;;;;1.40;1.40;;;23.20;61.60;;;;;;4964053;28;20102;-16
2022/05/23 04:20:47;;;;;;;1.92;1.80;;;23.20;61.60;;;;;;4958245;28;20050;-17
2022/05/23 04:23:13;;;;;;;1.70;1.60;;;23.20;61.60;;;;;;4958696;28;20054;-16
2022/05/23 04:25:43;;;;;;;1.73;1.63;;;23.20;61.60;;;;;;4958549;28;20035;-17
2022/05/23 04:28:09;;;;;;;1.42;1.40;;;23.20;61.60;;;;;;4958822;28;20067;-16
2022/05/23 04:30:35;;;;;;;2.05;1.95;;;23.20;61.60;;;;;;4957952;28;20132;-16
2022/05/23 04:35:45;;;;;;;1.48;1.38;;;23.20;61.60;;;;;;4976626;28;20570;-16
2022/05/23 04:38:11;;;;;;;1.75;1.45;;;23.20;61.60;;;;;;4977832;28;20499;-15
2022/05/23 04:40:37;;;;;;;1.50;1.40;;;23.20;61.60;;;;;;4977192;28;20039;-16
2022/05/23 04:43:03;;;;;;;2.42;1.42;;;23.20;61.60;;;;;;4962683;28;20051;-17
2022/05/23 04:45:28;;;;;;;2.65;1.63;;;23.20;61.50;;;;;;4974134;28;20050;-16
2022/05/23 04:50:38;;;;;;;1.48;1.38;;;23.20;61.50;;;;;;4976479;28;20049;-15
2022/05/23 04:53:05;;;;;;;1.38;1.27;;;23.20;61.50;;;;;;4971337;28;20047;-15
2022/05/23 04:55:33;;;;;;;1.33;1.30;;;23.20;61.50;;;;;;4957004;28;20050;-16
2022/05/23 04:57:59;;;;;;;1.20;1.10;;;23.10;61.50;;;;;;4957943;28;20734;-15
2022/05/23 05:00:25;;;;;;;1.60;1.50;;;23.10;61.50;;;;;;4957903;28;20503;-16
2022/05/23 05:02:51;;;;;;;1.27;1.17;;;23.10;61.40;;;;;;4957610;28;20039;-17
2022/05/23 05:05:17;;;;;;;1.40;1.30;;;23.10;61.50;;;;;;4959510;28;20101;-16
2022/05/23 05:07:42;;;;;;;2.00;1.90;;;23.10;61.40;;;;;;4957384;28;20039;-15
2022/05/23 05:10:08;;;;;;;1.00;1.00;;;23.20;61.50;;;;;;4958056;28;20488;-15
2022/05/23 05:12:34;;;;;;;1.15;1.15;;;23.20;61.30;;;;;;4967126;28;20043;-16
2022/05/23 05:15:00;;;;;;;1.15;1.13;;;23.20;61.30;;;;;;4976643;28;20100;-17
2022/05/23 05:17:26;;;;;;;2.20;1.50;;;23.20;61.30;;;;;;4976331;28;20412;-15
2022/05/23 05:19:51;;;;;;;1.20;1.20;;;23.10;61.30;;;;;;4975260;28;20504;-16
2022/05/23 05:22:17;;;;;;;1.58;1.48;;;23.10;61.30;;;;;;4627703;28;10000119;-16
2022/05/23 05:24:43;;;;;;;1.58;1.48;;;23.10;61.40;;;;;;4973855;28;20046;-15
2022/05/23 05:27:09;;;;;;;1.15;1.13;;;23.10;61.30;;;;;;4972633;28;20061;-16
2022/05/23 05:29:35;;;;;;;1.23;1.10;;;23.10;61.30;;;;;;4966820;28;20539;-17
2022/05/23 05:32:08;;;;;;;1.02;1.02;;;23.00;61.20;;;;;;4972789;28;20404;-16
2022/05/23 05:34:36;;;;;;;1.20;1.20;;;23.10;61.10;;;;;;4979860;28;20720;-15
2022/05/23 05:37:07;;;;;;;1.20;1.10;;;23.10;61.00;;;;;;4964415;28;20057;-15
2022/05/23 05:39:32;;;;;;;1.25;1.15;;;23.00;61.10;;;;;;4962637;28;20609;-16
2022/05/23 05:42:05;;;;;;;1.30;1.20;;;23.00;61.30;;;;;;4968611;28;20432;-17
2022/05/23 05:44:32;;;;;;;0.98;0.90;;;23.10;61.30;;;;;;4970369;28;20046;-15
2022/05/23 05:47:00;;;;;;;2.10;1.30;;;23.10;61.30;;;;;;4970579;28;20046;-15
2022/05/23 05:49:28;;;;;;;1.13;1.05;;;23.10;61.10;;;;;;4972143;28;20504;-16
2022/05/23 05:51:56;;;;;;;1.20;1.00;;;23.10;61.20;;;;;;4972765;28;20892;-15
2022/05/23 05:54:23;;;;;;;1.42;1.33;;;23.10;61.30;;;;;;4967355;28;20047;-17
2022/05/23 05:56:51;;;;;;;1.13;1.13;;;23.10;61.30;;;;;;4969874;28;20057;-17
2022/05/23 05:59:17;;;;;;;1.83;1.10;;;23.10;61.50;;;;;;4986931;28;20688;-16
2022/05/23 06:01:42;;;;;;;1.40;1.30;;;23.10;61.40;;;;;;4970871;28;20586;-17
2022/05/23 06:04:08;;;;;;;1.52;1.17;;;23.10;61.30;;;;;;4970926;28;20400;-17
2022/05/23 06:12:02;;;;;;;0.82;0.82;;;23.00;61.30;;;;;;4964512;28;20492;-16
2022/05/23 06:14:28;;;;;;;1.00;1.00;;;23.00;61.30;;;;;;4972922;28;20078;-16
2022/05/23 06:16:54;;;;;;;0.90;0.90;;;23.00;61.30;;;;;;4971500;28;20046;-16
2022/05/23 06:19:20;;;;;;;1.00;1.00;;;23.00;61.30;;;;;;4982897;28;20069;-16
2022/05/23 06:21:45;;;;;;;1.02;1.02;;;23.00;61.30;;;;;;4976650;28;20046;-17
2022/05/23 06:24:12;;;;;;;0.80;0.80;;;23.00;61.30;;;;;;4971939;28;20053;-16
2022/05/23 06:26:37;;;;;;;1.33;1.23;;;23.00;61.10;;;;;;4970023;28;20059;-15
2022/05/23 06:29:03;;;;;;;1.10;1.00;;;23.00;61.30;;;;;;4971164;28;20046;-15
2022/05/23 06:31:29;;;;;;;0.70;0.70;;;23.00;61.10;;;;;;4970380;28;20538;-18
2022/05/23 06:33:54;;;;;;;0.90;0.90;;;23.00;61.10;;;;;;4969766;28;20054;-17
2022/05/23 06:36:20;;;;;;;0.93;0.93;;;23.00;61.30;;;;;;4972699;28;20050;-16
2022/05/23 06:38:45;;;;;;;0.90;0.90;;;23.00;61.30;;;;;;4974328;28;20049;-20
2022/05/23 06:41:11;;;;;;;0.82;0.82;;;23.00;61.20;;;;;;4973070;28;20138;-18
2022/05/23 06:43:38;;;;;;;1.00;1.00;;;23.00;61.30;;;;;;4973884;28;20127;-17
2022/05/23 06:46:03;;;;;;;1.00;0.90;;;23.00;61.20;;;;;;4971506;28;20055;-18
2022/05/23 06:48:30;;;;;;;1.30;1.23;;;23.00;61.30;;;;;;4974992;28;20043;-19
2022/05/23 06:50:55;;;;;;;1.00;1.00;;;23.00;61.20;;;;;;4972339;28;20050;-17
2022/05/23 06:53:22;;;;;;;0.90;0.88;;;23.00;61.40;;;;;;4974172;28;20043;-17
2022/05/23 06:55:48;;;;;;;0.80;0.80;;;23.00;61.40;;;;;;4977974;28;20078;-17
2022/05/23 06:58:14;;;;;;;1.30;1.00;;;23.00;61.30;;;;;;4975832;28;20058;-18
2022/05/23 07:00:40;;;;;;;1.25;1.15;;;23.00;61.30;;;;;;4976496;28;20080;-16
2022/05/23 07:03:05;;;;;;;1.20;1.10;;;23.00;60.40;;;;;;4974523;28;20537;-17
2022/05/23 07:13:44;;;;;;;0.70;0.70;;;22.90;60.40;;;;;;4976027;28;20088;-16
2022/05/23 07:16:10;;;;;;;1.17;0.73;;;22.90;60.50;;;;;;4977469;28;20046;-16
2022/05/23 07:18:38;;;;;;;0.55;0.55;;;22.90;60.30;;;;;;4973660;28;20039;-17
2022/05/23 07:21:07;;;;;;;0.80;0.80;;;22.90;60.50;;;;;;4971902;28;20495;-16
2022/05/23 07:23:33;;;;;;;0.80;0.80;;;22.90;60.50;;;;;;4976369;28;20046;-17
2022/05/23 07:25:59;;;;;;;0.95;0.95;;;22.90;60.60;;;;;;4975806;28;20048;-16
2022/05/23 07:28:24;;;;;;;0.85;0.85;;;22.90;60.50;;;;;;4978915;28;20095;-15
2022/05/23 07:30:50;;;;;;;0.93;0.93;;;23.00;60.30;;;;;;4976131;28;20129;-16
2022/05/23 07:33:15;;;;;;;1.02;0.80;;;23.00;60.40;;;;;;4974685;28;20460;-16
2022/05/23 07:35:42;;;;;;;0.60;0.60;;;22.90;60.40;;;;;;4977883;28;20066;-18
2022/05/23 07:38:09;;;;;;;0.80;0.80;;;22.90;60.50;;;;;;4992522;28;20051;-16
2022/05/23 07:40:34;;;;;;;0.80;0.80;;;22.90;60.70;;;;;;4978286;28;20039;-17
2022/05/23 07:43:00;;;;;;;0.80;0.80;;;22.90;60.60;;;;;;4977700;28;20038;-15
2022/05/23 07:45:25;;;;;;;1.42;1.42;;;22.90;60.70;;;;;;4976998;28;20083;-16
2022/05/23 07:47:51;;;;;;;2.05;0.60;;;22.90;60.40;;;;;;4976613;28;20049;-16
2022/05/23 07:50:19;;;;;;;0.77;0.77;;;23.00;60.50;;;;;;4975577;28;20050;-17
2022/05/23 08:00:30;;;;;;;0.95;0.68;;;23.00;60.70;;;;;;4986219;28;20034;-16
2022/05/23 08:00:58;;;;;;;1.85;0.60;;;22.80;60.60;;;;;;4976072;28;20412;-15
2022/05/23 08:03:24;;;;;;;0.90;0.90;;;22.90;60.60;;;;;;4975652;28;20051;-16
2022/05/23 08:05:50;;;;;;;0.70;0.70;;;22.90;60.70;;;;;;4976628;28;20058;-16
2022/05/23 08:08:15;;;;;;;1.48;0.55;;;22.80;60.70;;;;;;4977614;28;20491;-16
2022/05/23 08:10:41;;;;;;;0.47;0.47;;;22.90;60.80;;;;;;4985302;28;20050;-15
2022/05/23 08:13:09;;;;;;;0.50;0.50;;;22.90;60.70;;;;;;4975975;28;20126;-16
2022/05/23 08:15:37;;;;;;;0.50;0.50;;;22.90;60.70;;;;;;4972600;28;20062;-16
2022/05/23 08:18:04;;;;;;;0.73;0.73;;;22.90;60.70;;;;;;4974744;28;20717;-16
2022/05/23 08:20:29;;;;;;;0.68;0.68;;;22.90;60.70;;;;;;4971854;28;20027;-16
2022/05/23 08:22:57;;;;;;;0.98;0.60;;;22.90;60.70;;;;;;4968579;28;20508;-16
2022/05/23 08:25:23;;;;;;;0.47;0.47;;;22.90;60.70;;;;;;4971503;28;20046;-18
2022/05/23 08:27:48;;;;;;;0.60;0.60;;;22.90;60.50;;;;;;4966326;28;20378;-18
2022/05/23 08:30:14;;;;;;;0.82;0.80;;;22.90;60.70;;;;;;4959678;28;20051;-18
2022/05/23 08:32:40;;;;;;;0.70;0.70;;;22.90;60.70;;;;;;4970681;28;20109;-15
2022/05/23 08:35:08;;;;;;;0.47;0.47;;;22.90;60.70;;;;;;4971739;28;20056;-17
2022/05/23 08:37:34;;;;;;;0.60;0.60;;;22.80;60.90;;;;;;4964194;28;20081;-18
2022/05/23 08:39:59;;;;;;;1.50;0.50;;;22.80;60.80;;;;;;4956228;28;20034;-17
2022/05/23 08:42:32;;;;;;;0.50;0.50;;;22.90;60.80;;;;;;4963956;28;20035;-19
2022/05/23 08:45:25;;;;;;;0.57;0.57;;;22.90;60.80;;;;;;4956634;28;20059;-16
2022/05/23 08:48:04;;;;;;;0.57;0.50;;;22.90;60.80;;;;;;4945058;28;20125;-17
2022/05/23 08:50:43;;;;;;;0.40;0.40;;;22.80;60.80;;;;;;4952996;28;20077;-16
2022/05/23 08:53:13;;;;;;;0.50;0.50;;;22.80;60.90;;;;;;4963561;28;20041;-17
2022/05/23 08:55:46;;;;;;;0.38;0.38;;;22.80;60.80;;;;;;4960640;28;20014;-16
2022/05/23 08:58:36;;;;;;;0.65;0.65;;;22.80;60.90;;;;;;4969879;28;20105;-16
2022/05/23 09:01:18;;;;;;;0.40;0.40;;;22.80;60.90;;;;;;4933872;28;20028;-16
2022/05/23 09:03:57;;;;;;;0.60;0.60;;;22.80;60.80;;;;;;4963627;28;20025;-18
2022/05/23 09:06:36;;;;;;;0.40;0.40;;;22.80;61.00;;;;;;4946581;28;20050;-17
2022/05/23 09:09:07;;;;;;;0.38;0.38;;;22.90;61.00;;;;;;4952545;28;20030;-17
2022/05/23 09:11:36;;;;;;;0.57;0.30;;;22.80;60.90;;;;;;4957085;28;20054;-18
2022/05/23 09:14:03;;;;;;;0.30;0.25;;;22.80;60.90;;;;;;4960912;28;20033;-16
2022/05/23 09:16:42;;;;;;;0.65;0.52;;;22.90;60.80;;;;;;4952597;28;20125;-18
2022/05/23 09:19:22;;;;;;;0.30;0.30;;;22.90;60.70;;;;;;4953881;28;20103;-16
2022/05/23 09:24:55;;;;;;;0.50;0.50;;;22.90;60.90;;;;;;4968552;28;20078;-15
2022/05/23 09:27:40;;;;;;;0.47;0.40;;;22.90;60.70;;;;;;4968203;28;20035;-16
2022/05/23 09:30:13;;;;;;;0.70;0.50;;;22.90;60.70;;;;;;4966837;28;20055;-18
2022/05/23 09:32:59;;;;;;;2.72;0.38;;;23.00;60.80;;;;;;4970146;28;20042;-16
2022/05/23 09:35:29;;;;;;;0.40;0.40;;;23.00;61.70;;;;;;4971108;28;20026;-15
2022/05/23 09:38:04;;;;;;;0.30;0.30;;;23.10;60.50;;;;;;4973874;28;20428;-16
2022/05/23 09:40:31;;;;;;;0.38;0.30;;;23.00;60.70;;;;;;4978870;28;20023;-17
2022/05/23 09:49:15;;;;;;;0.38;0.38;;;23.00;60.70;;;;;;4958498;28;20042;-16
2022/05/23 09:52:02;;;;;;;0.30;0.30;;;23.00;60.80;;;;;;4968637;28;20480;-16
2022/05/23 09:54:29;;;;;;;0.40;0.40;;;23.00;60.70;;;;;;4965738;28;20147;-15
2022/05/23 09:56:56;;;;;;;0.40;0.40;;;23.00;60.70;;;;;;4966084;28;20106;-16
2022/05/23 09:59:33;;;;;;;0.30;0.30;;;23.00;61.60;;;;;;4973263;28;20053;-16
2022/05/23 10:02:05;;;;;;;0.38;0.38;;;23.00;60.80;;;;;;4973442;28;20070;-16
2022/05/23 10:04:31;;;;;;;0.52;0.52;;;23.00;60.70;;;;;;4975477;28;20543;-16
2022/05/23 10:06:57;;;;;;;0.38;0.38;;;23.00;60.80;;;;;;4974307;28;20496;-15
2022/05/23 10:09:30;;;;;;;0.40;0.32;;;23.00;60.70;;;;;;4976715;28;20027;-16
2022/05/23 10:12:07;;;;;;;0.20;0.20;;;23.00;60.70;;;;;;4976258;28;20026;-16
2022/05/23 10:14:49;;;;;;;0.55;0.47;;;23.00;60.70;;;;;;4965420;28;20118;-17
2022/05/23 10:17:46;;;;;;;0.50;0.50;;;23.00;60.70;;;;;;4974375;28;20090;-16
2022/05/23 10:20:28;;;;;;;0.47;0.43;;;23.00;60.80;;;;;;4964058;28;20539;-17
2022/05/23 10:23:01;;;;;;;0.57;0.47;;;23.00;60.60;;;;;;4969315;28;20078;-17
2022/05/23 10:25:43;;;;;;;0.50;0.40;;;23.00;60.50;;;;;;4625709;28;10000365;-17
2022/05/23 10:28:14;;;;;;;0.60;0.50;;;23.00;60.60;;;;;;4955040;28;20539;-16
2022/05/23 10:30:43;;;;;;;0.40;0.38;;;23.00;60.60;;;;;;4967913;28;20114;-21
2022/05/23 10:33:09;;;;;;;0.20;0.20;;;23.00;60.80;;;;;;4950633;28;20027;-17
2022/05/23 10:35:50;;;;;;;0.40;0.40;;;23.00;60.60;;;;;;4930535;28;20147;-17
2022/05/23 10:44:27;;;;;;;1.92;0.47;;;23.00;60.80;;;;;;4965648;28;21050;-18
2022/05/23 10:46:57;;;;;;;0.95;0.50;;;23.00;60.90;;;;;;4973157;28;20121;-15
2022/05/23 10:49:36;;;;;;;0.30;0.30;;;23.10;61.00;;;;;;4959994;28;20030;-15
2022/05/23 10:52:23;;;;;;;1.75;0.50;;;23.00;60.90;;;;;;4966909;28;20577;-16
2022/05/23 10:55:12;;;;;;;0.40;0.40;;;23.10;61.30;;;;;;4972576;28;20054;-16
2022/05/23 10:58:23;;;;;;;0.95;0.50;;;23.10;60.90;;;;;;4960980;28;20055;-17
2022/05/23 11:01:18;;;;;;;0.90;0.55;;;23.10;60.50;;;;;;4943289;28;20098;-18
2022/05/23 11:03:48;;;;;;;0.45;0.40;;;23.10;60.40;;;;;;4966350;28;20043;-18
2022/05/23 11:06:19;;;;;;;0.50;0.50;;;23.10;60.50;;;;;;4968838;28;20065;-17
2022/05/23 11:09:08;;;;;;;3.42;0.50;;;23.00;60.30;;;;;;4969148;28;20491;-17
2022/05/23 11:12:14;;;;;;;0.55;0.55;;;23.10;60.40;;;;;;4973971;28;20101;-17
2022/05/23 11:14:48;;;;;;;0.70;0.40;;;23.10;60.80;;;;;;4964351;28;20061;-18
2022/05/23 11:17:13;;;;;;;0.43;0.30;;;23.20;60.30;;;;;;4989806;28;20047;-17
2022/05/23 11:19:54;;;;;;;0.40;0.40;;;23.20;60.50;;;;;;4975081;28;20061;-17
2022/05/23 11:22:33;;;;;;;0.70;0.50;;;23.20;60.20;;;;;;4975640;28;20416;-17
2022/05/23 11:25:32;;;;;;;0.30;0.30;;;23.20;60.00;;;;;;4973739;28;20046;-18
2022/05/23 11:34:06;;;;;;;1.45;0.50;;;23.30;59.90;;;;;;4986819;28;20131;-17
2022/05/23 11:39:42;;;;;;;0.30;0.30;;;23.30;59.70;;;;;;4968425;28;20050;-16
2022/05/23 11:42:13;;;;;;;0.43;0.40;;;23.30;59.60;;;;;;4974382;28;20198;-17
2022/05/23 11:44:42;;;;;;;0.47;0.47;;;23.30;59.50;;;;;;4973139;28;20074;-17
2022/05/23 11:47:10;;;;;;;0.80;0.57;;;23.30;59.70;;;;;;4975556;28;20050;-17
2022/05/23 11:49:46;;;;;;;0.65;0.40;;;23.30;59.80;;;;;;4973424;28;20793;-17
2022/05/23 11:52:32;;;;;;;0.40;0.40;;;23.30;59.80;;;;;;4970336;28;20047;-16
2022/05/23 11:54:57;;;;;;;0.20;0.20;;;23.30;59.80;;;;;;4972637;28;20078;-16
2022/05/23 11:57:37;;;;;;;0.50;0.50;;;23.30;59.70;;;;;;4972127;28;20106;-16
2022/05/23 12:00:03;;;;;;;0.50;0.40;;;23.30;59.70;;;;;;4973478;28;20137;-17
2022/05/23 12:02:29;;;;;;;0.45;0.40;;;23.30;59.70;;;;;;4974673;28;20138;-16
2022/05/23 12:04:55;;;;;;;0.40;0.40;;;23.30;59.70;;;;;;4973703;28;20055;-18
2022/05/23 12:07:44;;;;;;;0.32;0.30;;;23.30;59.70;;;;;;4974587;28;20051;-15
2022/05/23 12:10:22;;;;;;;0.40;0.30;;;23.30;59.70;;;;;;4973386;28;20057;-16
2022/05/23 12:12:52;;;;;;;0.85;0.60;;;23.30;59.60;;;;;;4984446;28;20046;-17
2022/05/23 12:15:48;;;;;;;0.40;0.40;;;23.30;59.60;;;;;;4977109;28;20046;-15
2022/05/23 12:18:23;;;;;;;0.38;0.38;;;23.30;59.60;;;;;;4967986;28;20043;-15
2022/05/23 12:20:59;;;;;;;1.13;0.40;;;23.30;59.60;;;;;;4974173;28;20046;-16
2022/05/23 12:23:28;;;;;;;0.47;0.30;;;23.30;59.60;;;;;;4972317;28;20483;-16
2022/05/23 12:26:25;;;;;;;0.30;0.30;;;23.30;59.80;;;;;;4972317;28;20062;-16
2022/05/23 12:28:51;;;;;;;1.58;0.40;;;23.30;59.70;;;;;;4972500;28;20043;-16
2022/05/23 12:31:19;;;;;;;0.60;0.50;;;23.30;59.70;;;;;;4982083;28;20443;-16
2022/05/23 12:33:48;;;;;;;0.30;0.30;;;23.30;59.90;;;;;;4977350;28;20051;-17
2022/05/23 12:36:18;;;;;;;0.40;0.30;;;23.30;59.80;;;;;;4971898;28;20047;-16
2022/05/23 12:39:07;;;;;;;0.57;0.47;;;23.30;59.70;;;;;;4971892;28;20039;-16
2022/05/23 12:41:36;;;;;;;0.47;0.40;;;23.30;60.50;;;;;;4964021;28;20504;-16
2022/05/23 12:44:16;;;;;;;0.50;0.40;;;23.30;59.60;;;;;;4973664;28;20043;-16
2022/05/23 12:47:05;;;;;;;0.63;0.40;;;23.40;59.50;;;;;;4968034;28;20166;-16
2022/05/23 12:50:10;;;;;;;0.52;0.30;;;23.40;60.20;;;;;;4960397;28;20051;-15
2022/05/23 12:53:02;;;;;;;0.47;0.30;;;23.40;59.50;;;;;;4972203;28;20538;-16
2022/05/23 12:56:12;;;;;;;0.52;0.30;;;23.40;59.50;;;;;;4971944;28;20047;-16
2022/05/23 12:58:38;;;;;;;0.40;0.38;;;23.40;59.40;;;;;;4962908;28;20043;-17
2022/05/23 13:01:11;;;;;;;0.40;0.30;;;23.40;59.40;;;;;;4954480;28;20055;-16
2022/05/23 13:03:57;;;;;;;0.52;0.40;;;23.40;59.40;;;;;;4974806;28;20097;-16
2022/05/23 13:06:46;;;;;;;0.50;0.40;;;23.40;59.50;;;;;;4987732;28;20043;-18
2022/05/23 13:09:27;;;;;;;0.40;0.40;;;23.40;59.50;;;;;;4971661;28;20049;-17
2022/05/23 13:11:55;;;;;;;0.30;0.30;;;23.40;59.50;;;;;;4968022;28;20046;-18
2022/05/23 13:14:20;;;;;;;0.90;0.50;;;23.50;59.40;;;;;;4962947;28;20050;-16
2022/05/23 13:16:54;;;;;;;0.68;0.40;;;23.40;59.40;;;;;;4972752;28;20055;-16
2022/05/23 13:22:05;;;;;;;;;;;23.50;59.50;;;;;;4967046;28;20113;-16
2022/05/23 13:24:50;;;;;;;0.68;0.40;;;23.50;59.40;;;;;;4969824;28;19925;-15
2022/05/23 13:27:28;;;;;;;0.30;0.30;;;23.40;59.40;;;;;;4971588;28;20056;-15
2022/05/23 13:30:23;;;;;;;0.60;0.40;;;23.40;59.50;;;;;;4972153;28;20043;-16
2022/05/23 13:33:07;;;;;;;;;;;23.40;59.40;;;;;;4972170;28;20050;-16
2022/05/23 13:35:33;;;;;;;0.30;0.30;;;23.50;59.30;;;;;;4972575;28;19928;-16
2022/05/23 13:38:14;;;;;;;0.22;0.22;;;23.50;59.40;;;;;;4971171;28;20270;-17
2022/05/23 13:40:46;;;;;;;0.57;0.30;;;23.50;59.30;;;;;;4970183;28;20050;-17
2022/05/23 13:43:18;;;;;;;0.30;0.30;;;23.50;59.30;;;;;;4972572;28;20053;-17
2022/05/23 13:45:43;;;;;;;0.43;0.30;;;23.50;59.30;;;;;;4969257;28;20047;-16
2022/05/23 13:48:39;;;;;;;0.32;0.32;;;23.50;59.50;;;;;;4969202;28;20043;-16
2022/05/23 13:51:08;;;;;;;0.28;0.22;;;23.50;59.40;;;;;;4969075;28;20051;-15
2022/05/23 13:53:40;;;;;;;0.40;0.40;;;23.50;59.30;;;;;;4989301;28;20031;-17
2022/05/23 13:56:06;;;;;;;0.40;0.40;;;23.50;59.30;;;;;;4954800;28;20513;-18
2022/05/23 13:58:34;;;;;;;0.82;0.80;;;23.50;59.30;;;;;;4954918;28;20394;-17
2022/05/23 14:01:06;;;;;;;0.40;0.40;;;23.50;59.30;;;;;;4963540;28;20137;-16
2022/05/23 14:03:38;;;;;;;0.30;0.30;;;23.50;59.00;;;;;;4974574;28;20043;-16
2022/05/23 14:06:06;;;;;;;0.60;0.30;;;23.50;59.10;;;;;;4973957;28;20054;-16
2022/05/23 14:08:36;;;;;;;0.50;0.30;;;23.50;58.90;;;;;;4975078;28;20042;-17
2022/05/23 14:11:20;;;;;;;0.32;0.32;;;23.40;58.90;;;;;;4974910;28;20075;-18